createdAt,value
2022-10-02T00:02:04.935Z,14.20
2022-10-02T00:04:42.931Z,14.57
2022-10-02T00:07:13.298Z,14.63
2022-10-02T00:09:47.510Z,14.10
2022-10-02T00:12:20.834Z,14.23
2022-10-02T00:14:53.421Z,13.97
2022-10-02T00:17:25.698Z,13.23
2022-10-02T00:19:55.159Z,13.50
2022-10-02T00:22:36.681Z,14.23
2022-10-02T00:25:11.330Z,14.70
2022-10-02T00:27:55.695Z,13.73
2022-10-02T00:30:23.907Z,14.47
2022-10-02T00:33:02.773Z,13.55
2022-10-02T00:35:53.569Z,12.95
2022-10-02T00:38:31.745Z,11.57
2022-10-02T00:41:18.527Z,12.33
2022-10-02T00:44:01.397Z,10.53
2022-10-02T00:46:42.842Z,11.93
2022-10-02T00:49:29.339Z,11.60
2022-10-02T00:52:06.617Z,11.07
2022-10-02T00:54:59.416Z,11.70
2022-10-02T00:57:39.277Z,11.47
2022-10-02T01:00:12.694Z,10.60
2022-10-02T01:03:03.348Z,11.63
2022-10-02T01:05:32.536Z,10.33
2022-10-02T01:08:01.081Z,11.63
2022-10-02T01:10:30.908Z,11.63
2022-10-02T01:12:59.722Z,11.03
2022-10-02T01:15:33.399Z,12.63
2022-10-02T01:18:03.314Z,11.20
2022-10-02T01:20:37.213Z,11.73
2022-10-02T01:23:15.076Z,11.37
2022-10-02T01:25:45.108Z,11.67
2022-10-02T01:28:13.824Z,11.50
2022-10-02T01:30:45.714Z,11.83
2022-10-02T01:33:16.440Z,11.73
2022-10-02T01:35:45.124Z,11.93
2022-10-02T01:38:15.623Z,12.47
2022-10-02T01:40:45.599Z,12.67
2022-10-02T01:43:17.616Z,12.20
2022-10-02T01:45:53.789Z,12.00
2022-10-02T01:48:35.928Z,13.30
2022-10-02T01:51:16.823Z,14.27
2022-10-02T01:53:50.672Z,13.13
2022-10-02T01:56:28.648Z,12.90
2022-10-02T01:59:05.700Z,12.10
2022-10-02T02:01:43.835Z,12.57
2022-10-02T02:04:22.917Z,13.50
2022-10-02T02:06:58.437Z,13.70
2022-10-02T02:09:34.784Z,13.17
2022-10-02T02:12:11.076Z,13.00
2022-10-02T02:14:44.944Z,13.30
2022-10-02T02:17:18.525Z,14.53
2022-10-02T02:19:50.271Z,14.63
2022-10-02T02:22:23.487Z,14.97
2022-10-02T02:24:57.060Z,15.47
2022-10-02T02:27:31.034Z,15.57
2022-10-02T02:30:09.577Z,15.07
2022-10-02T02:32:40.970Z,15.17
2022-10-02T02:35:14.217Z,14.83
2022-10-02T02:37:46.148Z,14.90
2022-10-02T02:40:18.925Z,14.87
2022-10-02T02:42:56.031Z,15.10
2022-10-02T02:45:28.643Z,15.03
2022-10-02T02:48:01.389Z,15.13
2022-10-02T02:50:33.975Z,17.80
2022-10-02T02:53:09.513Z,17.37
2022-10-02T02:55:45.152Z,17.17
2022-10-02T02:58:19.006Z,18.27
2022-10-02T03:00:47.345Z,18.10
2022-10-02T03:03:15.739Z,17.73
2022-10-02T03:05:48.067Z,17.70
2022-10-02T03:08:23.608Z,16.40
2022-10-02T03:11:01.794Z,17.33
2022-10-02T03:13:43.240Z,16.90
2022-10-02T03:16:21.768Z,17.17
2022-10-02T03:19:01.366Z,17.13
2022-10-02T03:21:36.524Z,17.47
2022-10-02T03:24:12.715Z,17.70
2022-10-02T03:26:45.659Z,17.10
2022-10-02T03:29:19.415Z,18.27
2022-10-02T03:31:48.942Z,17.27
2022-10-02T03:34:18.380Z,16.97
2022-10-02T03:36:47.975Z,17.30
2022-10-02T03:39:25.659Z,18.13
2022-10-02T03:41:54.859Z,16.63
2022-10-02T03:44:24.651Z,17.93
2022-10-02T03:46:53.270Z,18.03
2022-10-02T03:49:21.485Z,18.67
2022-10-02T03:51:49.635Z,19.07
2022-10-02T03:54:19.646Z,18.63
2022-10-02T03:56:54.399Z,18.30
2022-10-02T03:59:34.382Z,18.07
2022-10-02T04:02:07.424Z,18.10
2022-10-02T04:04:43.554Z,17.13
2022-10-02T04:07:17.678Z,17.77
2022-10-02T04:09:52.595Z,17.57
2022-10-02T04:12:27.048Z,18.23
2022-10-02T04:15:02.226Z,17.03
2022-10-02T04:17:38.556Z,16.53
2022-10-02T04:20:14.305Z,17.97
2022-10-02T04:22:47.701Z,17.73
2022-10-02T04:25:19.290Z,16.87
2022-10-02T04:27:52.380Z,17.70
2022-10-02T04:30:22.472Z,18.73
2022-10-02T04:32:51.512Z,19.43
2022-10-02T04:35:30.542Z,18.73
2022-10-02T04:38:19.321Z,19.37
2022-10-02T04:41:02.457Z,18.10
2022-10-02T04:43:45.228Z,17.40
2022-10-02T04:46:27.559Z,19.50
2022-10-02T04:49:22.062Z,18.57
2022-10-02T04:52:06.462Z,19.20
2022-10-02T04:54:48.117Z,19.97
2022-10-02T04:57:29.310Z,19.50
2022-10-02T05:00:09.562Z,17.97
2022-10-02T05:02:58.646Z,17.30
2022-10-02T05:05:39.470Z,16.93
2022-10-02T05:08:33.402Z,17.10
2022-10-02T05:11:12.161Z,17.00
2022-10-02T05:13:57.906Z,17.33
2022-10-02T05:16:43.805Z,18.70
2022-10-02T05:19:43.881Z,17.67
2022-10-02T05:22:24.258Z,17.00
2022-10-02T05:25:04.552Z,17.13
2022-10-02T05:27:51.423Z,16.73
2022-10-02T05:30:20.723Z,17.97
2022-10-02T05:33:28.319Z,16.93
2022-10-02T05:36:17.330Z,15.97
2022-10-02T05:38:58.324Z,17.23
2022-10-02T05:41:33.684Z,16.53
2022-10-02T05:44:07.401Z,15.97
2022-10-02T05:46:43.161Z,15.60
2022-10-02T05:49:17.727Z,15.40
2022-10-02T05:51:53.706Z,15.17
2022-10-02T05:54:35.731Z,15.93
2022-10-02T05:57:09.802Z,17.53
2022-10-02T05:59:45.054Z,16.77
2022-10-02T06:02:21.418Z,17.17
2022-10-02T06:04:58.620Z,16.83
2022-10-02T06:07:29.357Z,15.97
2022-10-02T06:10:04.228Z,15.43
2022-10-02T06:12:38.579Z,15.90
2022-10-02T06:15:13.132Z,16.27
2022-10-02T06:17:47.357Z,15.23
2022-10-02T06:20:20.889Z,15.47
2022-10-02T06:22:55.109Z,14.87
2022-10-02T06:25:28.889Z,15.70
2022-10-02T06:28:00.992Z,14.53
2022-10-02T06:30:32.361Z,15.40
2022-10-02T06:33:05.730Z,14.93
2022-10-02T06:35:51.525Z,13.10
2022-10-02T06:38:35.587Z,11.53
2022-10-02T06:41:10.664Z,9.30
2022-10-02T06:43:55.058Z,10.23
2022-10-02T06:46:31.272Z,11.53
2022-10-02T06:49:05.685Z,11.40
2022-10-02T06:51:46.550Z,10.33
2022-10-02T06:54:34.073Z,12.00
2022-10-02T06:57:20.295Z,10.83
2022-10-02T07:00:04.421Z,10.63
2022-10-02T07:02:59.350Z,9.17
2022-10-02T07:05:52.066Z,9.43
2022-10-02T07:08:27.514Z,9.63
2022-10-02T07:11:04.878Z,11.10
2022-10-02T07:14:07.536Z,11.03
2022-10-02T07:17:05.240Z,11.53
2022-10-02T07:20:15.273Z,10.53
2022-10-02T07:23:00.316Z,9.57
2022-10-02T07:25:45.158Z,11.33
2022-10-02T07:28:24.921Z,10.40
2022-10-02T07:31:00.581Z,10.77
2022-10-02T07:33:48.369Z,10.50
2022-10-02T07:36:26.762Z,10.83
2022-10-02T07:39:09.099Z,10.33
2022-10-02T07:41:57.724Z,10.70
2022-10-02T07:44:55.722Z,9.10
2022-10-02T07:47:38.430Z,10.07
2022-10-02T07:50:13.428Z,12.00
2022-10-02T07:52:51.678Z,11.10
2022-10-02T07:55:22.111Z,9.43
2022-10-02T07:58:01.535Z,9.53
2022-10-02T08:00:35.822Z,9.00
2022-10-02T08:03:08.639Z,8.97
2022-10-02T08:05:42.484Z,8.53
2022-10-02T08:08:17.563Z,9.23
2022-10-02T08:10:50.719Z,9.13
2022-10-02T08:13:22.079Z,10.10
2022-10-02T08:15:57.251Z,8.80
2022-10-02T08:18:35.131Z,9.10
2022-10-02T08:21:06.475Z,7.73
2022-10-02T08:23:40.208Z,10.35
2022-10-02T08:26:13.743Z,10.90
2022-10-02T08:28:47.508Z,9.30
2022-10-02T08:31:17.102Z,8.07
2022-10-02T08:33:45.416Z,7.72
2022-10-02T08:36:37.232Z,8.90
2022-10-02T08:39:18.042Z,9.60
2022-10-02T08:42:26.055Z,8.02
2022-10-02T08:45:26.219Z,8.38
2022-10-02T08:48:27.340Z,7.63
2022-10-02T08:51:29.757Z,6.68
2022-10-02T08:54:22.830Z,6.97
2022-10-02T08:57:13.274Z,7.10
2022-10-02T09:00:11.086Z,7.25
2022-10-02T09:03:34.542Z,8.07
2022-10-02T09:06:31.597Z,7.05
2022-10-02T09:09:42.532Z,6.95
2022-10-02T09:13:01.668Z,6.97
2022-10-02T09:15:45.035Z,6.88
2022-10-02T09:18:34.393Z,7.30
2022-10-02T09:21:18.690Z,6.60
2022-10-02T09:24:36.012Z,8.00
2022-10-02T09:27:45.472Z,6.07
2022-10-02T09:30:28.266Z,5.75
2022-10-02T09:33:34.703Z,5.47
2022-10-02T09:36:47.819Z,5.60
2022-10-02T09:39:44.890Z,5.55
2022-10-02T09:42:45.566Z,5.88
2022-10-02T09:46:00.166Z,5.18
2022-10-02T09:49:00.706Z,5.90
2022-10-02T09:51:56.336Z,5.57
2022-10-02T09:54:56.467Z,4.93
2022-10-02T09:58:03.509Z,5.60
2022-10-02T10:01:02.307Z,4.80
2022-10-02T10:04:02.131Z,4.85
2022-10-02T10:10:39.112Z,4.85
2022-10-02T10:13:36.842Z,5.13
2022-10-02T10:16:59.069Z,5.07
2022-10-02T10:20:00.296Z,5.60
2022-10-02T10:22:57.577Z,6.10
2022-10-02T10:25:51.677Z,4.80
2022-10-02T10:28:48.849Z,4.88
2022-10-02T10:31:48.664Z,5.38
2022-10-02T10:34:47.960Z,5.03
2022-10-02T10:38:00.232Z,5.40
2022-10-02T10:40:43.838Z,5.10
2022-10-02T10:43:42.048Z,4.88
2022-10-02T10:46:42.221Z,5.88
2022-10-02T10:49:35.310Z,5.63
2022-10-02T10:52:16.148Z,6.53
2022-10-02T10:54:57.029Z,5.75
2022-10-02T10:57:52.042Z,5.07
2022-10-02T11:00:25.832Z,5.15
2022-10-02T11:03:41.990Z,5.15
2022-10-02T11:06:34.129Z,5.50
2022-10-02T11:09:44.431Z,5.82
2022-10-02T11:12:45.446Z,5.65
2022-10-02T11:15:31.992Z,6.07
2022-10-02T11:18:17.125Z,6.68
2022-10-02T11:21:06.157Z,7.15
2022-10-02T11:23:54.642Z,7.38
2022-10-02T11:26:40.576Z,7.75
2022-10-02T11:29:37.680Z,8.40
2022-10-02T11:32:28.070Z,8.15
2022-10-02T11:35:11.798Z,8.40
2022-10-02T11:37:51.347Z,8.15
2022-10-02T11:40:34.161Z,10.82
2022-10-02T11:43:31.799Z,9.95
2022-10-02T11:46:28.971Z,10.88
2022-10-02T11:49:13.110Z,10.45
2022-10-02T11:52:04.297Z,10.82
2022-10-02T11:54:54.678Z,10.18
2022-10-02T11:57:32.194Z,10.68
2022-10-02T12:00:19.664Z,10.00
2022-10-02T12:03:00.009Z,11.00
2022-10-02T12:05:51.712Z,11.43
2022-10-02T12:08:30.298Z,11.30
2022-10-02T12:11:06.948Z,12.18
2022-10-02T12:14:01.239Z,13.63
2022-10-02T12:16:42.875Z,14.55
2022-10-02T12:19:28.462Z,12.88
2022-10-02T12:22:31.823Z,14.15
2022-10-02T12:25:34.945Z,13.20
2022-10-02T12:28:13.622Z,12.32
2022-10-02T12:30:47.757Z,13.18
2022-10-02T12:33:34.487Z,12.32
2022-10-02T12:36:34.308Z,14.15
2022-10-02T12:39:18.806Z,14.35
2022-10-02T12:42:04.842Z,13.98
2022-10-02T12:45:11.704Z,12.95
2022-10-02T12:48:09.125Z,13.05
2022-10-02T12:50:55.009Z,13.05
2022-10-02T12:54:07.602Z,12.93
2022-10-02T12:57:36.650Z,14.90
2022-10-02T13:00:14.540Z,15.32
2022-10-02T13:03:20.320Z,13.98
2022-10-02T13:06:22.426Z,14.07
2022-10-02T13:09:08.997Z,14.90
2022-10-02T13:11:54.950Z,15.27
2022-10-02T13:14:44.002Z,14.43
2022-10-02T13:17:29.871Z,14.70
2022-10-02T13:20:13.270Z,15.88
2022-10-02T13:22:51.020Z,16.30
2022-10-02T13:25:46.054Z,16.30
2022-10-02T13:28:33.596Z,16.98
2022-10-02T13:31:12.469Z,14.63
2022-10-02T13:34:05.543Z,14.88
2022-10-02T13:36:51.170Z,14.30
2022-10-02T13:39:30.767Z,12.30
2022-10-02T13:42:18.193Z,13.48
2022-10-02T13:44:53.830Z,14.57
2022-10-02T13:47:38.893Z,15.57
2022-10-02T13:50:24.636Z,16.40
2022-10-02T13:53:19.858Z,14.00
2022-10-02T13:55:54.018Z,15.57
2022-10-02T13:58:55.725Z,14.73
2022-10-02T14:01:36.038Z,15.05
2022-10-02T14:04:30.595Z,15.13
2022-10-02T14:07:11.051Z,16.77
2022-10-02T14:09:51.112Z,14.05
2022-10-02T14:12:28.821Z,13.90
2022-10-02T14:15:21.053Z,13.88
2022-10-02T14:18:13.930Z,15.70
2022-10-02T14:20:52.335Z,14.55
2022-10-02T14:23:45.539Z,15.52
2022-10-02T14:26:21.293Z,13.65
2022-10-02T14:29:11.202Z,13.10
2022-10-02T14:32:17.355Z,12.30
2022-10-02T14:35:21.857Z,13.25
2022-10-02T14:38:17.698Z,14.75
2022-10-02T14:40:53.042Z,13.55
2022-10-02T14:43:55.487Z,14.18
2022-10-02T14:46:44.486Z,14.82
2022-10-02T14:49:35.238Z,12.38
2022-10-02T14:52:19.754Z,12.13
2022-10-02T14:55:20.380Z,11.15
2022-10-02T14:58:09.210Z,12.98
2022-10-02T15:00:45.313Z,11.95
2022-10-02T15:03:34.624Z,12.55
2022-10-02T15:06:21.870Z,10.15
2022-10-02T15:08:54.635Z,10.30
2022-10-02T15:11:31.172Z,10.25
2022-10-02T15:14:04.675Z,10.63
2022-10-02T15:17:00.017Z,10.07
2022-10-02T15:19:33.683Z,10.88
2022-10-02T15:22:08.448Z,9.52
2022-10-02T15:24:46.546Z,9.30
2022-10-02T15:27:24.330Z,10.25
2022-10-02T15:30:15.320Z,10.60
2022-10-02T15:33:07.532Z,10.02
2022-10-02T15:35:55.287Z,8.07
2022-10-02T15:39:05.085Z,8.38
2022-10-02T15:41:41.566Z,8.05
2022-10-02T15:44:24.997Z,7.55
2022-10-02T15:46:58.657Z,7.60
2022-10-02T15:49:57.393Z,8.35
2022-10-02T15:52:35.796Z,8.45
2022-10-02T15:55:19.903Z,7.65
2022-10-02T15:58:09.442Z,7.45
2022-10-02T16:01:01.801Z,7.70
2022-10-02T16:03:39.948Z,7.53
2022-10-02T16:06:13.947Z,6.97
2022-10-02T16:09:11.783Z,7.63
2022-10-02T16:12:18.616Z,8.00
2022-10-02T16:14:58.864Z,7.65
2022-10-02T16:17:52.280Z,7.93
2022-10-02T16:20:56.136Z,7.03
2022-10-02T16:23:42.472Z,6.90
2022-10-02T16:26:20.491Z,6.82
2022-10-02T16:28:57.645Z,5.93
2022-10-02T16:31:41.162Z,6.70
2022-10-02T16:34:25.425Z,7.30
2022-10-02T16:36:55.297Z,6.88
2022-10-02T16:39:42.317Z,6.70
2022-10-02T16:42:42.971Z,6.57
2022-10-02T16:45:31.518Z,6.47
2022-10-02T16:48:08.906Z,5.97
2022-10-02T16:51:04.806Z,6.10
2022-10-02T16:53:37.863Z,6.90
2022-10-02T16:56:13.194Z,6.80
2022-10-02T16:58:49.195Z,5.95
2022-10-02T17:01:25.938Z,6.28
2022-10-02T17:04:22.155Z,6.20
2022-10-02T17:06:58.196Z,6.03
2022-10-02T17:09:33.324Z,5.90
2022-10-02T17:12:11.123Z,6.00
2022-10-02T17:14:46.647Z,6.13
2022-10-02T17:17:23.458Z,6.40
2022-10-02T17:19:55.282Z,6.03
2022-10-02T17:22:33.618Z,6.22
2022-10-02T17:25:17.240Z,7.28
2022-10-02T17:27:53.582Z,7.70
2022-10-02T17:30:27.040Z,8.10
2022-10-02T17:33:13.102Z,7.57
2022-10-02T17:35:49.683Z,7.57
2022-10-02T17:38:37.870Z,6.53
2022-10-02T17:41:16.751Z,6.70
2022-10-02T17:43:58.621Z,6.60
2022-10-02T17:46:55.993Z,7.03
2022-10-02T17:49:32.758Z,7.53
2022-10-02T17:52:30.732Z,7.35
2022-10-02T17:55:32.850Z,7.20
2022-10-02T17:58:13.142Z,6.47
2022-10-02T18:00:53.961Z,6.57
2022-10-02T18:03:36.792Z,6.35
2022-10-02T18:06:15.832Z,6.63
2022-10-02T18:09:04.907Z,6.43
2022-10-02T18:12:03.967Z,6.18
2022-10-02T18:15:09.934Z,5.53
2022-10-02T18:17:47.995Z,6.70
2022-10-02T18:20:25.875Z,7.70
2022-10-02T18:23:10.516Z,7.53
2022-10-02T18:25:50.812Z,6.70
2022-10-02T18:28:42.846Z,7.68
2022-10-02T18:31:44.309Z,7.25
2022-10-02T18:34:43.516Z,7.55
2022-10-02T18:37:35.870Z,7.18
2022-10-02T18:40:17.519Z,7.05
2022-10-02T18:43:00.726Z,7.07
2022-10-02T18:45:44.201Z,7.20
2022-10-02T18:48:32.326Z,7.07
2022-10-02T18:51:19.905Z,6.60
2022-10-02T18:54:01.249Z,6.47
2022-10-02T18:56:51.874Z,6.75
2022-10-02T18:59:30.253Z,7.05
2022-10-02T19:02:14.366Z,7.05
2022-10-02T19:05:10.188Z,7.07
2022-10-02T19:07:42.058Z,6.63
2022-10-02T19:10:29.639Z,7.53
2022-10-02T19:13:02.947Z,7.55
2022-10-02T19:15:33.183Z,7.65
2022-10-02T19:18:05.371Z,8.45
2022-10-02T19:20:43.598Z,9.00
2022-10-02T19:23:22.378Z,7.80
2022-10-02T19:25:52.502Z,7.20
2022-10-02T19:28:25.530Z,7.15
2022-10-02T19:30:56.673Z,7.07
2022-10-02T19:33:36.227Z,7.30
2022-10-02T19:36:06.638Z,8.45
2022-10-02T19:38:38.048Z,8.65
2022-10-02T19:41:11.452Z,8.35
2022-10-02T19:43:48.241Z,8.32
2022-10-02T19:46:19.914Z,8.65
2022-10-02T19:48:57.029Z,8.20
2022-10-02T19:51:26.147Z,8.38
2022-10-02T19:53:58.957Z,7.93
2022-10-02T19:56:33.083Z,7.75
2022-10-02T19:59:05.830Z,9.30
2022-10-02T20:01:42.093Z,10.43
2022-10-02T20:04:18.749Z,10.75
2022-10-02T20:06:52.413Z,10.95
2022-10-02T20:09:26.025Z,10.55
2022-10-02T20:12:01.124Z,9.75
2022-10-02T20:14:36.691Z,9.05
2022-10-02T20:17:10.004Z,10.73
2022-10-02T20:19:45.535Z,11.95
2022-10-02T20:22:30.147Z,13.30
2022-10-02T20:25:03.657Z,13.90
2022-10-02T20:27:42.323Z,13.85
2022-10-02T20:30:15.408Z,13.20
2022-10-02T20:32:48.820Z,14.90
2022-10-02T20:35:22.832Z,13.55
2022-10-02T20:37:54.091Z,14.20
2022-10-02T20:40:26.791Z,14.45
2022-10-02T20:43:01.141Z,14.30
2022-10-02T20:45:36.567Z,13.32
2022-10-02T20:49:06.506Z,11.68
2022-10-02T20:51:54.524Z,11.07
2022-10-02T20:54:36.520Z,13.45
2022-10-02T20:57:56.393Z,11.15
2022-10-02T21:00:23.333Z,11.55
2022-10-02T21:03:22.548Z,12.75
2022-10-02T21:06:41.116Z,14.27
2022-10-02T21:09:57.666Z,14.40
2022-10-02T21:13:10.927Z,15.20
2022-10-02T21:15:55.364Z,16.10
2022-10-02T21:19:03.872Z,17.58
2022-10-02T21:22:18.472Z,18.33
2022-10-02T21:25:18.305Z,18.98
2022-10-02T21:28:29.151Z,20.83
2022-10-02T21:31:11.565Z,20.00
2022-10-02T21:33:41.912Z,17.98
2022-10-02T21:36:17.222Z,16.20
2022-10-02T21:39:52.809Z,16.95
2022-10-02T21:42:53.290Z,17.88
2022-10-02T21:45:41.297Z,20.15
2022-10-02T21:48:41.487Z,19.55
2022-10-02T21:51:56.231Z,19.38
2022-10-02T21:54:55.054Z,17.05
2022-10-02T21:58:07.889Z,16.92
2022-10-02T22:00:46.422Z,15.05
2022-10-02T22:03:52.756Z,18.42
2022-10-02T22:06:44.865Z,16.88
2022-10-02T22:09:44.671Z,15.70
2022-10-02T22:12:28.143Z,15.60
2022-10-02T22:15:10.764Z,18.13
2022-10-02T22:17:49.166Z,17.48
2022-10-02T22:20:40.742Z,16.15
2022-10-02T22:23:26.504Z,15.80
2022-10-02T22:26:06.222Z,18.25
2022-10-02T22:28:45.650Z,18.00
2022-10-02T22:31:48.147Z,16.80
2022-10-02T22:34:34.110Z,16.17
2022-10-02T22:37:20.421Z,17.45
2022-10-02T22:39:54.198Z,18.10
2022-10-02T22:42:26.885Z,20.95
2022-10-02T22:45:01.646Z,22.15
2022-10-02T22:47:36.426Z,21.48
2022-10-02T22:50:09.694Z,20.50
2022-10-02T22:52:50.261Z,19.13
2022-10-02T22:55:23.237Z,18.35
2022-10-02T22:57:58.334Z,17.75
2022-10-02T23:00:31.652Z,18.25
2022-10-02T23:03:08.919Z,19.25
2022-10-02T23:05:42.525Z,17.48
2022-10-02T23:08:19.320Z,17.52
2022-10-02T23:10:51.533Z,17.58
2022-10-02T23:13:27.486Z,19.38
2022-10-02T23:16:02.382Z,18.90
2022-10-02T23:18:41.287Z,20.75
2022-10-02T23:21:23.894Z,20.35
2022-10-02T23:23:58.838Z,22.27
2022-10-02T23:26:33.366Z,21.48
2022-10-02T23:29:15.970Z,22.38
2022-10-02T23:31:54.761Z,21.42
2022-10-02T23:34:35.974Z,25.20
2022-10-02T23:37:13.685Z,24.83
2022-10-02T23:39:48.490Z,24.55
2022-10-02T23:42:22.829Z,25.50
2022-10-02T23:44:58.626Z,30.00
2022-10-02T23:47:34.776Z,30.08
2022-10-02T23:50:10.183Z,32.08
2022-10-02T23:53:02.660Z,28.65
2022-10-02T23:56:00.471Z,29.35
2022-10-02T23:58:52.189Z,29.48
